sensor_id;sensor_type;location;lat;lon;timestamp;temperature;humidity
10903;DHT22;5504;47.312;11.060;2022-12-07T00:02:05;2.60;91.50
10903;DHT22;5504;47.312;11.060;2022-12-07T00:04:31;2.70;91.00
10903;DHT22;5504;47.312;11.060;2022-12-07T00:06:57;2.60;90.90
10903;DHT22;5504;47.312;11.060;2022-12-07T00:09:22;2.50;90.90
10903;DHT22;5504;47.312;11.060;2022-12-07T00:11:50;2.30;91.30
10903;DHT22;5504;47.312;11.060;2022-12-07T00:14:17;2.20;91.70
10903;DHT22;5504;47.312;11.060;2022-12-07T00:16:44;2.30;91.80
10903;DHT22;5504;47.312;11.060;2022-12-07T00:19:11;2.50;91.70
10903;DHT22;5504;47.312;11.060;2022-12-07T00:21:37;2.50;91.50
10903;DHT22;5504;47.312;11.060;2022-12-07T00:24:05;2.40;91.50
10903;DHT22;5504;47.312;11.060;2022-12-07T00:26:36;2.50;91.60
10903;DHT22;5504;47.312;11.060;2022-12-07T00:29:08;2.40;91.60
10903;DHT22;5504;47.312;11.060;2022-12-07T00:31:36;2.50;91.80
10903;DHT22;5504;47.312;11.060;2022-12-07T00:34:05;2.50;91.70
10903;DHT22;5504;47.312;11.060;2022-12-07T00:36:31;2.50;91.60
10903;DHT22;5504;47.312;11.060;2022-12-07T00:38:58;2.50;91.60
10903;DHT22;5504;47.312;11.060;2022-12-07T00:41:25;2.50;91.60
10903;DHT22;5504;47.312;11.060;2022-12-07T00:43:52;2.40;91.70
10903;DHT22;5504;47.312;11.060;2022-12-07T00:46:19;2.40;91.80
10903;DHT22;5504;47.312;11.060;2022-12-07T00:48:46;2.40;91.90
10903;DHT22;5504;47.312;11.060;2022-12-07T00:51:13;2.40;91.90
10903;DHT22;5504;47.312;11.060;2022-12-07T00:53:40;2.40;91.90
10903;DHT22;5504;47.312;11.060;2022-12-07T00:56:13;2.50;91.80
10903;DHT22;5504;47.312;11.060;2022-12-07T00:58:39;2.50;91.70
10903;DHT22;5504;47.312;11.060;2022-12-07T01:01:06;2.50;91.70
10903;DHT22;5504;47.312;11.060;2022-12-07T01:03:33;2.50;91.70
10903;DHT22;5504;47.312;11.060;2022-12-07T01:05:58;2.50;91.80
10903;DHT22;5504;47.312;11.060;2022-12-07T01:08:26;2.40;91.70
10903;DHT22;5504;47.312;11.060;2022-12-07T01:11:03;2.40;91.70
10903;DHT22;5504;47.312;11.060;2022-12-07T01:13:30;2.60;91.70
10903;DHT22;5504;47.312;11.060;2022-12-07T01:15:58;2.60;91.40
10903;DHT22;5504;47.312;11.060;2022-12-07T01:18:26;2.50;91.40
10903;DHT22;5504;47.312;11.060;2022-12-07T01:21:09;2.40;91.60
10903;DHT22;5504;47.312;11.060;2022-12-07T01:23:36;2.30;91.70
10903;DHT22;5504;47.312;11.060;2022-12-07T01:26:05;2.30;91.90
10903;DHT22;5504;47.312;11.060;2022-12-07T01:28:31;2.40;91.90
10903;DHT22;5504;47.312;11.060;2022-12-07T01:30:58;2.50;91.60
10903;DHT22;5504;47.312;11.060;2022-12-07T01:33:24;2.40;91.40
10903;DHT22;5504;47.312;11.060;2022-12-07T01:35:49;2.40;91.40
10903;DHT22;5504;47.312;11.060;2022-12-07T01:38:15;2.40;91.50
10903;DHT22;5504;47.312;11.060;2022-12-07T01:40:41;2.30;91.60
10903;DHT22;5504;47.312;11.060;2022-12-07T01:43:16;2.30;91.70
10903;DHT22;5504;47.312;11.060;2022-12-07T01:45:43;2.40;91.90
10903;DHT22;5504;47.312;11.060;2022-12-07T01:48:11;2.40;91.90
10903;DHT22;5504;47.312;11.060;2022-12-07T01:50:38;2.40;91.60
10903;DHT22;5504;47.312;11.060;2022-12-07T01:53:06;2.40;91.50
10903;DHT22;5504;47.312;11.060;2022-12-07T01:55:37;2.30;91.70
10903;DHT22;5504;47.312;11.060;2022-12-07T01:58:04;2.30;92.00
10903;DHT22;5504;47.312;11.060;2022-12-07T02:00:29;2.30;92.00
10903;DHT22;5504;47.312;11.060;2022-12-07T02:03:00;2.30;92.10
10903;DHT22;5504;47.312;11.060;2022-12-07T02:05:28;2.30;92.00
10903;DHT22;5504;47.312;11.060;2022-12-07T02:07:56;2.30;92.10
10903;DHT22;5504;47.312;11.060;2022-12-07T02:10:28;2.40;92.10
10903;DHT22;5504;47.312;11.060;2022-12-07T02:13:06;2.40;92.10
10903;DHT22;5504;47.312;11.060;2022-12-07T02:21:12;2.50;91.40
10903;DHT22;5504;47.312;11.060;2022-12-07T02:26:48;2.40;91.70
10903;DHT22;5504;47.312;11.060;2022-12-07T02:29:25;2.50;91.90
10903;DHT22;5504;47.312;11.060;2022-12-07T02:32:11;2.50;91.90
10903;DHT22;5504;47.312;11.060;2022-12-07T02:35:05;2.40;91.90
10903;DHT22;5504;47.312;11.060;2022-12-07T02:38:03;2.40;91.90
10903;DHT22;5504;47.312;11.060;2022-12-07T02:40:40;2.30;91.90
10903;DHT22;5504;47.312;11.060;2022-12-07T02:43:28;2.20;92.00
10903;DHT22;5504;47.312;11.060;2022-12-07T02:46:23;2.20;92.20
10903;DHT22;5504;47.312;11.060;2022-12-07T02:48:52;2.20;92.40
10903;DHT22;5504;47.312;11.060;2022-12-07T02:51:19;2.20;92.50
10903;DHT22;5504;47.312;11.060;2022-12-07T02:53:45;2.30;92.50
10903;DHT22;5504;47.312;11.060;2022-12-07T03:01:50;2.40;92.10
10903;DHT22;5504;47.312;11.060;2022-12-07T03:12:29;2.30;92.10
10903;DHT22;5504;47.312;11.060;2022-12-07T03:15:10;2.30;92.10
10903;DHT22;5504;47.312;11.060;2022-12-07T03:17:40;2.30;92.00
10903;DHT22;5504;47.312;11.060;2022-12-07T03:20:09;2.40;91.90
10903;DHT22;5504;47.312;11.060;2022-12-07T03:22:38;2.50;91.50
10903;DHT22;5504;47.312;11.060;2022-12-07T03:25:09;2.50;91.30
10903;DHT22;5504;47.312;11.060;2022-12-07T03:27:44;2.50;91.40
10903;DHT22;5504;47.312;11.060;2022-12-07T03:30:17;2.50;91.30
10903;DHT22;5504;47.312;11.060;2022-12-07T03:35:19;2.30;91.50
10903;DHT22;5504;47.312;11.060;2022-12-07T03:40:44;2.30;91.90
10903;DHT22;5504;47.312;11.060;2022-12-07T03:43:10;2.20;91.90
10903;DHT22;5504;47.312;11.060;2022-12-07T03:45:40;2.20;91.80
10903;DHT22;5504;47.312;11.060;2022-12-07T03:53:36;2.20;92.10
10903;DHT22;5504;47.312;11.060;2022-12-07T03:56:05;2.20;92.10
10903;DHT22;5504;47.312;11.060;2022-12-07T03:58:33;2.20;92.20
10903;DHT22;5504;47.312;11.060;2022-12-07T04:01:01;2.20;92.20
10903;DHT22;5504;47.312;11.060;2022-12-07T04:03:26;2.10;92.20
10903;DHT22;5504;47.312;11.060;2022-12-07T04:05:52;2.10;92.30
10903;DHT22;5504;47.312;11.060;2022-12-07T04:08:18;2.20;92.40
10903;DHT22;5504;47.312;11.060;2022-12-07T04:10:44;2.20;92.30
10903;DHT22;5504;47.312;11.060;2022-12-07T04:13:10;2.20;92.10
10903;DHT22;5504;47.312;11.060;2022-12-07T04:15:35;2.30;92.00
10903;DHT22;5504;47.312;11.060;2022-12-07T04:18:01;2.40;91.70
10903;DHT22;5504;47.312;11.060;2022-12-07T04:20:27;2.30;91.70
10903;DHT22;5504;47.312;11.060;2022-12-07T04:22:53;2.30;91.80
10903;DHT22;5504;47.312;11.060;2022-12-07T04:25:18;2.40;91.70
10903;DHT22;5504;47.312;11.060;2022-12-07T04:27:44;2.40;91.70
10903;DHT22;5504;47.312;11.060;2022-12-07T04:30:10;2.30;91.70
10903;DHT22;5504;47.312;11.060;2022-12-07T04:32:36;2.30;91.90
10903;DHT22;5504;47.312;11.060;2022-12-07T04:35:03;2.30;92.10
10903;DHT22;5504;47.312;11.060;2022-12-07T04:37:29;2.30;92.10
10903;DHT22;5504;47.312;11.060;2022-12-07T04:39:54;2.30;92.10
10903;DHT22;5504;47.312;11.060;2022-12-07T04:42:20;2.30;92.10
10903;DHT22;5504;47.312;11.060;2022-12-07T04:44:46;2.20;92.10
10903;DHT22;5504;47.312;11.060;2022-12-07T04:47:12;2.30;92.20
10903;DHT22;5504;47.312;11.060;2022-12-07T04:49:37;2.30;92.20
10903;DHT22;5504;47.312;11.060;2022-12-07T04:52:03;2.30;92.20
10903;DHT22;5504;47.312;11.060;2022-12-07T04:54:29;2.30;92.20
10903;DHT22;5504;47.312;11.060;2022-12-07T04:56:54;2.30;92.10
10903;DHT22;5504;47.312;11.060;2022-12-07T04:59:20;2.30;92.20
10903;DHT22;5504;47.312;11.060;2022-12-07T05:01:46;2.30;92.10
10903;DHT22;5504;47.312;11.060;2022-12-07T05:04:11;2.20;92.10
10903;DHT22;5504;47.312;11.060;2022-12-07T05:06:37;2.10;92.10
10903;DHT22;5504;47.312;11.060;2022-12-07T05:09:03;2.10;92.20
10903;DHT22;5504;47.312;11.060;2022-12-07T05:11:29;2.10;92.30
10903;DHT22;5504;47.312;11.060;2022-12-07T05:14:07;2.20;92.40
10903;DHT22;5504;47.312;11.060;2022-12-07T05:16:34;2.20;92.20
10903;DHT22;5504;47.312;11.060;2022-12-07T05:18:59;2.20;92.10
10903;DHT22;5504;47.312;11.060;2022-12-07T05:21:25;2.20;92.20
10903;DHT22;5504;47.312;11.060;2022-12-07T05:23:51;2.40;91.90
10903;DHT22;5504;47.312;11.060;2022-12-07T05:26:18;2.30;91.80
10903;DHT22;5504;47.312;11.060;2022-12-07T05:28:44;2.20;91.80
10903;DHT22;5504;47.312;11.060;2022-12-07T05:31:09;2.00;92.00
10903;DHT22;5504;47.312;11.060;2022-12-07T05:33:35;1.90;92.30
10903;DHT22;5504;47.312;11.060;2022-12-07T05:36:01;1.80;92.60
10903;DHT22;5504;47.312;11.060;2022-12-07T05:38:32;1.90;92.80
10903;DHT22;5504;47.312;11.060;2022-12-07T05:41:03;1.90;92.70
10903;DHT22;5504;47.312;11.060;2022-12-07T05:43:29;1.80;92.70
10903;DHT22;5504;47.312;11.060;2022-12-07T05:45:55;1.90;92.70
10903;DHT22;5504;47.312;11.060;2022-12-07T05:48:21;2.10;92.40
10903;DHT22;5504;47.312;11.060;2022-12-07T05:50:48;2.20;92.10
10903;DHT22;5504;47.312;11.060;2022-12-07T05:53:14;2.10;92.00
10903;DHT22;5504;47.312;11.060;2022-12-07T05:55:40;2.00;92.00
10903;DHT22;5504;47.312;11.060;2022-12-07T05:58:05;1.90;92.10
10903;DHT22;5504;47.312;11.060;2022-12-07T06:00:49;1.90;92.40
10903;DHT22;5504;47.312;11.060;2022-12-07T06:03:15;1.90;92.50
10903;DHT22;5504;47.312;11.060;2022-12-07T06:05:41;1.80;92.50
10903;DHT22;5504;47.312;11.060;2022-12-07T06:08:07;1.80;92.60
10903;DHT22;5504;47.312;11.060;2022-12-07T06:10:32;1.90;92.30
10903;DHT22;5504;47.312;11.060;2022-12-07T06:12:58;1.90;92.30
10903;DHT22;5504;47.312;11.060;2022-12-07T06:15:24;1.90;92.50
10903;DHT22;5504;47.312;11.060;2022-12-07T06:17:49;1.90;92.50
10903;DHT22;5504;47.312;11.060;2022-12-07T06:20:15;1.80;92.40
10903;DHT22;5504;47.312;11.060;2022-12-07T06:22:41;1.90;92.40
10903;DHT22;5504;47.312;11.060;2022-12-07T06:25:07;2.00;92.30
10903;DHT22;5504;47.312;11.060;2022-12-07T06:27:33;2.00;92.30
10903;DHT22;5504;47.312;11.060;2022-12-07T06:29:58;2.00;92.30
10903;DHT22;5504;47.312;11.060;2022-12-07T06:32:25;2.00;92.10
10903;DHT22;5504;47.312;11.060;2022-12-07T06:34:50;2.00;92.10
10903;DHT22;5504;47.312;11.060;2022-12-07T06:37:16;2.00;92.30
10903;DHT22;5504;47.312;11.060;2022-12-07T06:39:42;2.00;92.30
10903;DHT22;5504;47.312;11.060;2022-12-07T06:42:08;1.90;92.40
10903;DHT22;5504;47.312;11.060;2022-12-07T06:44:34;1.90;92.30
10903;DHT22;5504;47.312;11.060;2022-12-07T06:46:59;1.90;92.50
10903;DHT22;5504;47.312;11.060;2022-12-07T06:49:25;2.00;92.40
10903;DHT22;5504;47.312;11.060;2022-12-07T06:51:51;2.00;92.30
10903;DHT22;5504;47.312;11.060;2022-12-07T06:54:17;1.90;92.40
10903;DHT22;5504;47.312;11.060;2022-12-07T06:56:42;1.90;92.70
10903;DHT22;5504;47.312;11.060;2022-12-07T06:59:08;1.90;92.80
10903;DHT22;5504;47.312;11.060;2022-12-07T07:01:35;2.00;92.60
10903;DHT22;5504;47.312;11.060;2022-12-07T07:04:00;2.10;92.20
10903;DHT22;5504;47.312;11.060;2022-12-07T07:06:26;2.10;92.10
10903;DHT22;5504;47.312;11.060;2022-12-07T07:08:52;2.00;92.10
10903;DHT22;5504;47.312;11.060;2022-12-07T07:11:18;2.00;92.20
10903;DHT22;5504;47.312;11.060;2022-12-07T07:13:44;1.90;92.40
10903;DHT22;5504;47.312;11.060;2022-12-07T07:16:10;1.80;92.40
10903;DHT22;5504;47.312;11.060;2022-12-07T07:18:36;1.80;92.60
10903;DHT22;5504;47.312;11.060;2022-12-07T07:21:02;1.90;92.70
10903;DHT22;5504;47.312;11.060;2022-12-07T07:23:28;2.00;92.70
10903;DHT22;5504;47.312;11.060;2022-12-07T07:25:54;2.00;92.50
10903;DHT22;5504;47.312;11.060;2022-12-07T07:28:19;2.00;92.50
10903;DHT22;5504;47.312;11.060;2022-12-07T07:30:45;1.90;92.60
10903;DHT22;5504;47.312;11.060;2022-12-07T07:33:12;1.90;92.60
10903;DHT22;5504;47.312;11.060;2022-12-07T07:35:38;1.90;92.80
10903;DHT22;5504;47.312;11.060;2022-12-07T07:38:05;1.90;92.90
10903;DHT22;5504;47.312;11.060;2022-12-07T07:40:31;2.00;92.90
10903;DHT22;5504;47.312;11.060;2022-12-07T07:42:57;2.10;92.60
10903;DHT22;5504;47.312;11.060;2022-12-07T07:45:24;2.30;92.50
10903;DHT22;5504;47.312;11.060;2022-12-07T07:47:50;2.30;92.20
10903;DHT22;5504;47.312;11.060;2022-12-07T07:50:17;2.30;92.30
10903;DHT22;5504;47.312;11.060;2022-12-07T07:52:43;2.30;92.50
10903;DHT22;5504;47.312;11.060;2022-12-07T07:55:09;2.20;92.40
10903;DHT22;5504;47.312;11.060;2022-12-07T07:57:39;2.10;92.40
10903;DHT22;5504;47.312;11.060;2022-12-07T08:00:07;2.10;92.60
10903;DHT22;5504;47.312;11.060;2022-12-07T08:02:34;2.10;92.80
10903;DHT22;5504;47.312;11.060;2022-12-07T08:04:59;2.20;92.70
10903;DHT22;5504;47.312;11.060;2022-12-07T08:07:26;2.30;92.70
10903;DHT22;5504;47.312;11.060;2022-12-07T08:09:52;2.40;92.70
10903;DHT22;5504;47.312;11.060;2022-12-07T08:12:18;2.50;92.60
10903;DHT22;5504;47.312;11.060;2022-12-07T08:14:43;2.50;92.60
10903;DHT22;5504;47.312;11.060;2022-12-07T08:17:09;2.60;92.40
10903;DHT22;5504;47.312;11.060;2022-12-07T08:19:35;2.60;92.30
10903;DHT22;5504;47.312;11.060;2022-12-07T08:22:01;2.70;92.10
10903;DHT22;5504;47.312;11.060;2022-12-07T08:24:27;2.70;92.10
10903;DHT22;5504;47.312;11.060;2022-12-07T08:26:52;2.80;92.20
10903;DHT22;5504;47.312;11.060;2022-12-07T08:29:18;2.80;92.20
10903;DHT22;5504;47.312;11.060;2022-12-07T08:31:44;2.90;92.00
10903;DHT22;5504;47.312;11.060;2022-12-07T08:34:10;2.90;91.90
10903;DHT22;5504;47.312;11.060;2022-12-07T08:36:36;2.80;91.80
10903;DHT22;5504;47.312;11.060;2022-12-07T08:39:02;2.90;91.80
10903;DHT22;5504;47.312;11.060;2022-12-07T08:41:28;3.00;91.60
10903;DHT22;5504;47.312;11.060;2022-12-07T08:43:54;3.00;91.60
10903;DHT22;5504;47.312;11.060;2022-12-07T08:46:25;3.20;91.60
10903;DHT22;5504;47.312;11.060;2022-12-07T08:49:03;3.20;91.50
10903;DHT22;5504;47.312;11.060;2022-12-07T08:51:30;3.10;91.50
10903;DHT22;5504;47.312;11.060;2022-12-07T08:53:56;3.00;91.50
10903;DHT22;5504;47.312;11.060;2022-12-07T08:56:24;3.00;91.50
10903;DHT22;5504;47.312;11.060;2022-12-07T08:58:50;3.00;91.40
10903;DHT22;5504;47.312;11.060;2022-12-07T09:01:16;2.90;91.60
10903;DHT22;5504;47.312;11.060;2022-12-07T09:03:41;2.80;91.90
10903;DHT22;5504;47.312;11.060;2022-12-07T09:06:07;2.70;91.90
10903;DHT22;5504;47.312;11.060;2022-12-07T09:08:40;2.60;92.10
10903;DHT22;5504;47.312;11.060;2022-12-07T09:11:07;2.90;92.00
10903;DHT22;5504;47.312;11.060;2022-12-07T09:13:33;3.10;91.80
10903;DHT22;5504;47.312;11.060;2022-12-07T09:15:58;3.20;91.50
10903;DHT22;5504;47.312;11.060;2022-12-07T09:18:24;3.30;91.60
10903;DHT22;5504;47.312;11.060;2022-12-07T09:20:50;3.40;91.40
10903;DHT22;5504;47.312;11.060;2022-12-07T09:23:16;3.50;91.30
10903;DHT22;5504;47.312;11.060;2022-12-07T09:25:42;3.50;91.20
10903;DHT22;5504;47.312;11.060;2022-12-07T09:28:08;3.60;91.40
10903;DHT22;5504;47.312;11.060;2022-12-07T09:30:34;3.70;91.30
10903;DHT22;5504;47.312;11.060;2022-12-07T09:33:00;3.70;90.80
10903;DHT22;5504;47.312;11.060;2022-12-07T09:35:26;3.80;90.90
10903;DHT22;5504;47.312;11.060;2022-12-07T09:37:53;3.80;90.90
10903;DHT22;5504;47.312;11.060;2022-12-07T09:40:20;4.00;90.90
10903;DHT22;5504;47.312;11.060;2022-12-07T09:42:52;4.20;90.50
10903;DHT22;5504;47.312;11.060;2022-12-07T09:45:25;4.30;90.20
10903;DHT22;5504;47.312;11.060;2022-12-07T09:47:52;4.20;90.00
10903;DHT22;5504;47.312;11.060;2022-12-07T09:50:21;4.20;89.70
10903;DHT22;5504;47.312;11.060;2022-12-07T09:52:49;4.30;89.80
10903;DHT22;5504;47.312;11.060;2022-12-07T09:55:19;4.30;89.50
10903;DHT22;5504;47.312;11.060;2022-12-07T09:57:45;4.30;90.00
10903;DHT22;5504;47.312;11.060;2022-12-07T10:00:14;4.10;89.50
10903;DHT22;5504;47.312;11.060;2022-12-07T10:02:44;3.90;89.80
10903;DHT22;5504;47.312;11.060;2022-12-07T10:05:18;4.00;90.10
10903;DHT22;5504;47.312;11.060;2022-12-07T10:07:46;4.10;90.10
10903;DHT22;5504;47.312;11.060;2022-12-07T10:10:18;4.10;90.00
10903;DHT22;5504;47.312;11.060;2022-12-07T10:12:59;4.20;90.10
10903;DHT22;5504;47.312;11.060;2022-12-07T10:15:48;4.30;89.80
10903;DHT22;5504;47.312;11.060;2022-12-07T10:20:45;4.40;89.50
10903;DHT22;5504;47.312;11.060;2022-12-07T10:23:16;4.50;89.30
10903;DHT22;5504;47.312;11.060;2022-12-07T10:25:43;4.60;88.90
10903;DHT22;5504;47.312;11.060;2022-12-07T10:33:31;4.70;88.80
10903;DHT22;5504;47.312;11.060;2022-12-07T10:35:58;4.80;88.30
10903;DHT22;5504;47.312;11.060;2022-12-07T10:38:26;4.90;87.40
10903;DHT22;5504;47.312;11.060;2022-12-07T10:41:06;4.80;87.70
10903;DHT22;5504;47.312;11.060;2022-12-07T10:43:32;4.90;87.80
10903;DHT22;5504;47.312;11.060;2022-12-07T11:02:06;4.70;88.10
10903;DHT22;5504;47.312;11.060;2022-12-07T11:04:54;5.10;88.40
10903;DHT22;5504;47.312;11.060;2022-12-07T11:10:35;5.50;87.50
10903;DHT22;5504;47.312;11.060;2022-12-07T11:24:15;6.40;81.50
10903;DHT22;5504;47.312;11.060;2022-12-07T11:38:16;7.70;79.30
10903;DHT22;5504;47.312;11.060;2022-12-07T11:40:50;6.80;78.30
10903;DHT22;5504;47.312;11.060;2022-12-07T11:43:26;6.50;81.50
10903;DHT22;5504;47.312;11.060;2022-12-07T11:46:14;7.90;82.20
10903;DHT22;5504;47.312;11.060;2022-12-07T11:48:49;8.50;76.80
10903;DHT22;5504;47.312;11.060;2022-12-07T11:51:18;8.90;76.00
10903;DHT22;5504;47.312;11.060;2022-12-07T11:53:55;9.50;74.80
10903;DHT22;5504;47.312;11.060;2022-12-07T11:56:25;9.80;73.60
10903;DHT22;5504;47.312;11.060;2022-12-07T11:59:08;10.30;72.80
10903;DHT22;5504;47.312;11.060;2022-12-07T12:01:44;10.60;70.90
10903;DHT22;5504;47.312;11.060;2022-12-07T12:06:44;10.70;69.20
10903;DHT22;5504;47.312;11.060;2022-12-07T12:09:29;10.80;69.10
10903;DHT22;5504;47.312;11.060;2022-12-07T12:12:21;10.80;69.00
10903;DHT22;5504;47.312;11.060;2022-12-07T12:15:03;10.10;69.60
10903;DHT22;5504;47.312;11.060;2022-12-07T12:23:41;8.70;68.40
10903;DHT22;5504;47.312;11.060;2022-12-07T12:26:19;7.60;71.90
10903;DHT22;5504;47.312;11.060;2022-12-07T12:29:00;6.90;74.50
10903;DHT22;5504;47.312;11.060;2022-12-07T12:33:58;7.30;74.10
10903;DHT22;5504;47.312;11.060;2022-12-07T12:47:10;6.20;76.20
10903;DHT22;5504;47.312;11.060;2022-12-07T12:50:17;5.70;77.60
10903;DHT22;5504;47.312;11.060;2022-12-07T12:57:36;4.70;80.30
10903;DHT22;5504;47.312;11.060;2022-12-07T13:00:23;4.70;82.20
10903;DHT22;5504;47.312;11.060;2022-12-07T13:02:54;4.60;82.10
10903;DHT22;5504;47.312;11.060;2022-12-07T13:05:28;5.10;82.10
10903;DHT22;5504;47.312;11.060;2022-12-07T13:15:44;5.40;79.70
10903;DHT22;5504;47.312;11.060;2022-12-07T13:23:58;4.60;81.10
10903;DHT22;5504;47.312;11.060;2022-12-07T13:31:52;4.50;82.30
10903;DHT22;5504;47.312;11.060;2022-12-07T13:36:58;5.20;81.60
10903;DHT22;5504;47.312;11.060;2022-12-07T13:39:27;5.30;80.60
10903;DHT22;5504;47.312;11.060;2022-12-07T13:41:58;5.30;81.00
10903;DHT22;5504;47.312;11.060;2022-12-07T13:44:27;5.40;80.60
10903;DHT22;5504;47.312;11.060;2022-12-07T13:49:26;5.80;80.50
10903;DHT22;5504;47.312;11.060;2022-12-07T13:51:53;5.90;79.80
10903;DHT22;5504;47.312;11.060;2022-12-07T13:54:19;6.00;79.40
10903;DHT22;5504;47.312;11.060;2022-12-07T13:56:50;5.80;78.90
10903;DHT22;5504;47.312;11.060;2022-12-07T13:59:22;5.90;79.80
10903;DHT22;5504;47.312;11.060;2022-12-07T14:01:50;5.30;79.40
10903;DHT22;5504;47.312;11.060;2022-12-07T14:04:36;4.90;81.30
10903;DHT22;5504;47.312;11.060;2022-12-07T14:07:20;4.90;81.80
10903;DHT22;5504;47.312;11.060;2022-12-07T14:10:00;5.20;82.80
10903;DHT22;5504;47.312;11.060;2022-12-07T14:12:27;5.50;81.00
10903;DHT22;5504;47.312;11.060;2022-12-07T14:14:54;5.60;80.40
10903;DHT22;5504;47.312;11.060;2022-12-07T14:17:23;5.60;80.40
10903;DHT22;5504;47.312;11.060;2022-12-07T14:19:50;5.30;80.50
10903;DHT22;5504;47.312;11.060;2022-12-07T14:25:44;5.60;81.30
10903;DHT22;5504;47.312;11.060;2022-12-07T14:27:57;5.50;80.50
10903;DHT22;5504;47.312;11.060;2022-12-07T14:30:31;5.60;80.80
10903;DHT22;5504;47.312;11.060;2022-12-07T14:33:00;5.70;80.70
10903;DHT22;5504;47.312;11.060;2022-12-07T14:35:27;5.60;80.40
10903;DHT22;5504;47.312;11.060;2022-12-07T14:37:52;5.00;80.20
10903;DHT22;5504;47.312;11.060;2022-12-07T14:40:22;4.60;82.40
10903;DHT22;5504;47.312;11.060;2022-12-07T14:42:51;4.80;82.60
10903;DHT22;5504;47.312;11.060;2022-12-07T14:45:20;5.10;82.50
10903;DHT22;5504;47.312;11.060;2022-12-07T14:47:46;5.20;82.00
10903;DHT22;5504;47.312;11.060;2022-12-07T14:50:13;5.30;81.60
10903;DHT22;5504;47.312;11.060;2022-12-07T14:52:40;5.20;82.10
10903;DHT22;5504;47.312;11.060;2022-12-07T14:55:14;5.30;82.30
10903;DHT22;5504;47.312;11.060;2022-12-07T14:57:41;5.40;82.30
10903;DHT22;5504;47.312;11.060;2022-12-07T15:00:09;5.40;82.00
10903;DHT22;5504;47.312;11.060;2022-12-07T15:02:35;5.50;81.90
10903;DHT22;5504;47.312;11.060;2022-12-07T15:05:00;5.40;81.90
10903;DHT22;5504;47.312;11.060;2022-12-07T15:07:26;5.20;81.60
10903;DHT22;5504;47.312;11.060;2022-12-07T15:09:52;5.10;82.10
10903;DHT22;5504;47.312;11.060;2022-12-07T15:12:17;5.00;82.00
10903;DHT22;5504;47.312;11.060;2022-12-07T15:14:43;5.00;82.80
10903;DHT22;5504;47.312;11.060;2022-12-07T15:17:10;4.90;83.00
10903;DHT22;5504;47.312;11.060;2022-12-07T15:19:37;5.10;82.70
10903;DHT22;5504;47.312;11.060;2022-12-07T15:22:03;4.90;83.40
10903;DHT22;5504;47.312;11.060;2022-12-07T15:24:28;4.90;83.90
10903;DHT22;5504;47.312;11.060;2022-12-07T15:26:54;4.90;84.70
10903;DHT22;5504;47.312;11.060;2022-12-07T15:29:20;5.00;83.70
10903;DHT22;5504;47.312;11.060;2022-12-07T15:31:48;4.90;83.90
10903;DHT22;5504;47.312;11.060;2022-12-07T15:34:14;4.80;84.40
10903;DHT22;5504;47.312;11.060;2022-12-07T15:36:39;4.70;84.70
10903;DHT22;5504;47.312;11.060;2022-12-07T15:39:05;4.60;84.30
10903;DHT22;5504;47.312;11.060;2022-12-07T15:41:31;4.60;83.90
10903;DHT22;5504;47.312;11.060;2022-12-07T15:43:57;4.60;84.20
10903;DHT22;5504;47.312;11.060;2022-12-07T15:46:41;4.60;85.20
10903;DHT22;5504;47.312;11.060;2022-12-07T15:49:16;4.70;85.50
10903;DHT22;5504;47.312;11.060;2022-12-07T15:51:43;4.70;85.80
10903;DHT22;5504;47.312;11.060;2022-12-07T15:54:18;4.70;85.50
10903;DHT22;5504;47.312;11.060;2022-12-07T15:56:44;4.70;84.80
10903;DHT22;5504;47.312;11.060;2022-12-07T15:59:10;4.70;85.20
10903;DHT22;5504;47.312;11.060;2022-12-07T16:01:36;4.60;85.70
10903;DHT22;5504;47.312;11.060;2022-12-07T16:04:01;4.60;85.80
10903;DHT22;5504;47.312;11.060;2022-12-07T16:06:27;4.60;85.60
10903;DHT22;5504;47.312;11.060;2022-12-07T16:08:53;4.60;86.40
10903;DHT22;5504;47.312;11.060;2022-12-07T16:11:18;4.50;86.10
10903;DHT22;5504;47.312;11.060;2022-12-07T16:13:44;4.60;85.80
10903;DHT22;5504;47.312;11.060;2022-12-07T16:16:13;4.60;86.00
10903;DHT22;5504;47.312;11.060;2022-12-07T16:18:39;4.60;86.10
10903;DHT22;5504;47.312;11.060;2022-12-07T16:21:05;4.50;85.90
10903;DHT22;5504;47.312;11.060;2022-12-07T16:23:31;4.40;85.70
10903;DHT22;5504;47.312;11.060;2022-12-07T16:26:08;4.50;85.80
10903;DHT22;5504;47.312;11.060;2022-12-07T16:28:34;4.60;85.60
10903;DHT22;5504;47.312;11.060;2022-12-07T16:31:02;4.60;85.90
10903;DHT22;5504;47.312;11.060;2022-12-07T16:33:27;4.50;86.70
10903;DHT22;5504;47.312;11.060;2022-12-07T16:35:53;4.50;86.60
10903;DHT22;5504;47.312;11.060;2022-12-07T16:38:19;4.40;86.60
10903;DHT22;5504;47.312;11.060;2022-12-07T16:40:46;4.50;86.50
10903;DHT22;5504;47.312;11.060;2022-12-07T16:43:13;4.30;87.60
10903;DHT22;5504;47.312;11.060;2022-12-07T16:45:39;4.30;87.20
10903;DHT22;5504;47.312;11.060;2022-12-07T16:48:04;4.30;87.30
10903;DHT22;5504;47.312;11.060;2022-12-07T16:50:30;4.30;87.60
10903;DHT22;5504;47.312;11.060;2022-12-07T16:52:56;4.30;87.80
10903;DHT22;5504;47.312;11.060;2022-12-07T16:55:21;4.20;87.40
10903;DHT22;5504;47.312;11.060;2022-12-07T16:57:47;4.20;87.70
10903;DHT22;5504;47.312;11.060;2022-12-07T17:00:13;4.30;87.30
10903;DHT22;5504;47.312;11.060;2022-12-07T17:02:39;4.40;86.40
10903;DHT22;5504;47.312;11.060;2022-12-07T17:05:04;4.40;86.10
10903;DHT22;5504;47.312;11.060;2022-12-07T17:07:30;4.20;86.60
10903;DHT22;5504;47.312;11.060;2022-12-07T17:09:56;4.20;87.00
10903;DHT22;5504;47.312;11.060;2022-12-07T17:12:21;4.10;87.70
10903;DHT22;5504;47.312;11.060;2022-12-07T17:14:47;4.10;88.30
10903;DHT22;5504;47.312;11.060;2022-12-07T17:17:31;4.00;88.80
10903;DHT22;5504;47.312;11.060;2022-12-07T17:19:57;4.00;88.80
10903;DHT22;5504;47.312;11.060;2022-12-07T17:22:23;4.10;89.00
10903;DHT22;5504;47.312;11.060;2022-12-07T17:24:49;4.10;89.10
10903;DHT22;5504;47.312;11.060;2022-12-07T17:27:15;4.10;89.30
10903;DHT22;5504;47.312;11.060;2022-12-07T17:29:41;4.20;89.30
10903;DHT22;5504;47.312;11.060;2022-12-07T17:32:07;4.20;89.30
10903;DHT22;5504;47.312;11.060;2022-12-07T17:34:32;4.20;89.00
10903;DHT22;5504;47.312;11.060;2022-12-07T17:36:58;4.10;89.00
10903;DHT22;5504;47.312;11.060;2022-12-07T17:39:24;4.10;89.20
10903;DHT22;5504;47.312;11.060;2022-12-07T17:41:50;4.00;89.30
10903;DHT22;5504;47.312;11.060;2022-12-07T17:44:48;4.00;89.70
10903;DHT22;5504;47.312;11.060;2022-12-07T17:47:13;4.10;89.60
10903;DHT22;5504;47.312;11.060;2022-12-07T17:49:41;4.10;88.90
10903;DHT22;5504;47.312;11.060;2022-12-07T17:52:07;4.20;88.50
10903;DHT22;5504;47.312;11.060;2022-12-07T17:54:52;4.10;89.00
10903;DHT22;5504;47.312;11.060;2022-12-07T17:57:17;4.10;89.10
10903;DHT22;5504;47.312;11.060;2022-12-07T17:59:43;4.00;89.40
10903;DHT22;5504;47.312;11.060;2022-12-07T18:02:10;4.10;90.00
10903;DHT22;5504;47.312;11.060;2022-12-07T18:04:36;4.10;90.00
10903;DHT22;5504;47.312;11.060;2022-12-07T18:07:01;4.10;89.90
10903;DHT22;5504;47.312;11.060;2022-12-07T18:09:30;4.10;89.10
10903;DHT22;5504;47.312;11.060;2022-12-07T18:11:55;4.00;88.60